createdAt,value
2022-07-25T00:02:16.127Z,98600.00
2022-07-25T00:04:43.610Z,98590.34
2022-07-25T00:07:11.628Z,98601.25
2022-07-25T00:09:39.074Z,98590.38
2022-07-25T00:12:06.808Z,98594.97
2022-07-25T00:14:35.086Z,98587.75
2022-07-25T00:17:02.481Z,98584.38
2022-07-25T00:19:29.660Z,98585.81
2022-07-25T00:21:57.573Z,98582.94
2022-07-25T00:24:24.854Z,98586.56
2022-07-25T00:26:52.173Z,98590.25
2022-07-25T00:29:19.399Z,98582.41
2022-07-25T00:31:46.693Z,98582.56
2022-07-25T00:34:16.863Z,98589.53
2022-07-25T00:36:44.094Z,98584.00
2022-07-25T00:39:11.408Z,98588.78
2022-07-25T00:41:41.658Z,98587.31
2022-07-25T00:44:09.058Z,98587.16
2022-07-25T00:46:39.567Z,98595.03
2022-07-25T00:49:06.823Z,98597.78
2022-07-25T00:51:34.464Z,98593.31
2022-07-25T00:54:01.823Z,98588.06
2022-07-25T00:56:29.558Z,98591.03
2022-07-25T00:58:56.838Z,98588.50
2022-07-25T01:01:24.400Z,98582.34
2022-07-25T01:03:51.880Z,98583.03
2022-07-25T01:06:21.110Z,98587.19
2022-07-25T01:08:53.321Z,98589.34
2022-07-25T01:11:22.298Z,98581.88
2022-07-25T01:13:49.462Z,98580.69
2022-07-25T01:16:17.317Z,98584.03
2022-07-25T01:18:45.456Z,98576.00
2022-07-25T01:21:12.877Z,98582.19
2022-07-25T01:23:41.421Z,98569.84
2022-07-25T01:26:09.245Z,98576.88
2022-07-25T01:28:36.603Z,98572.56
2022-07-25T01:31:04.073Z,98567.25
2022-07-25T01:33:31.413Z,98567.53
2022-07-25T01:35:58.825Z,98565.69
2022-07-25T01:38:26.378Z,98572.72
2022-07-25T01:40:53.559Z,98565.22
2022-07-25T01:43:20.927Z,98555.78
2022-07-25T01:45:49.014Z,98570.09
2022-07-25T01:48:16.611Z,98559.22
2022-07-25T01:50:44.924Z,98557.94
2022-07-25T01:53:12.575Z,98564.59
2022-07-25T01:55:39.692Z,98555.25
2022-07-25T01:58:07.453Z,98550.94
2022-07-25T02:00:35.665Z,98560.59
2022-07-25T02:03:29.404Z,98559.94
2022-07-25T02:06:07.616Z,98548.09
2022-07-25T02:08:35.692Z,98546.25
2022-07-25T02:11:03.524Z,98547.75
2022-07-25T02:13:30.719Z,98547.63
2022-07-25T02:15:58.933Z,98550.75
2022-07-25T02:18:26.406Z,98546.41
2022-07-25T02:20:53.902Z,98539.59
2022-07-25T02:23:21.034Z,98544.41
2022-07-25T02:25:48.244Z,98543.91
2022-07-25T02:28:15.462Z,98539.59
2022-07-25T02:30:42.812Z,98546.88
2022-07-25T02:33:10.004Z,98535.63
2022-07-25T02:35:37.225Z,98530.75
2022-07-25T02:38:04.464Z,98539.56
2022-07-25T02:40:31.700Z,98535.88
2022-07-25T02:42:59.115Z,98534.09
2022-07-25T02:45:26.274Z,98528.78
2022-07-25T02:47:53.467Z,98522.88
2022-07-25T02:50:20.580Z,98520.81
2022-07-25T02:52:47.726Z,98523.81
2022-07-25T02:55:14.947Z,98519.25
2022-07-25T02:57:42.093Z,98510.00
2022-07-25T03:00:10.760Z,98517.50
2022-07-25T03:02:38.262Z,98512.81
2022-07-25T03:05:14.536Z,98528.72
2022-07-25T03:07:44.632Z,98524.03
2022-07-25T03:10:14.250Z,98521.56
2022-07-25T03:12:44.086Z,98520.25
2022-07-25T03:15:13.954Z,98525.91
2022-07-25T03:17:42.160Z,98514.91
2022-07-25T03:20:10.604Z,98516.19
2022-07-25T03:22:38.132Z,98516.50
2022-07-25T03:25:06.813Z,98519.31
2022-07-25T03:27:43.405Z,98520.22
2022-07-25T03:30:12.218Z,98516.50
2022-07-25T03:32:41.102Z,98509.22
2022-07-25T03:35:09.261Z,98506.31
2022-07-25T03:37:36.708Z,98503.66
2022-07-25T03:40:05.717Z,98498.81
2022-07-25T03:42:35.442Z,98497.00
2022-07-25T03:45:04.586Z,98494.50
2022-07-25T03:47:32.025Z,98488.88
2022-07-25T03:49:59.158Z,98486.91
2022-07-25T03:52:26.278Z,98493.25
2022-07-25T03:54:53.608Z,98479.97
2022-07-25T03:57:21.112Z,98486.41
2022-07-25T03:59:48.446Z,98476.38
2022-07-25T04:02:15.742Z,98479.13
2022-07-25T04:04:42.992Z,98480.13
2022-07-25T04:07:10.149Z,98472.06
2022-07-25T04:09:37.893Z,98471.78
2022-07-25T04:12:05.939Z,98474.94
2022-07-25T04:14:33.142Z,98474.88
2022-07-25T04:17:00.652Z,98480.25
2022-07-25T04:19:28.857Z,98471.19
2022-07-25T04:21:56.396Z,98476.63
2022-07-25T04:24:23.695Z,98466.00
2022-07-25T04:26:50.867Z,98471.28
2022-07-25T04:29:18.045Z,98469.22
2022-07-25T04:31:45.395Z,98464.75
2022-07-25T04:34:12.621Z,98464.59
2022-07-25T04:36:39.790Z,98462.25
2022-07-25T04:39:06.974Z,98470.25
2022-07-25T04:41:34.107Z,98469.94
2022-07-25T04:44:01.285Z,98463.22
2022-07-25T04:46:28.473Z,98470.47
2022-07-25T04:48:55.735Z,98465.47
2022-07-25T04:51:22.967Z,98466.66
2022-07-25T04:53:50.373Z,98476.56
2022-07-25T04:56:21.566Z,98473.22
2022-07-25T04:58:49.308Z,98476.22
2022-07-25T05:01:16.722Z,98480.94
2022-07-25T05:03:49.683Z,98478.84
2022-07-25T05:06:19.633Z,98477.06
2022-07-25T05:08:48.136Z,98486.63
2022-07-25T05:11:15.300Z,98484.31
2022-07-25T05:13:42.508Z,98483.13
2022-07-25T05:16:09.911Z,98489.03
2022-07-25T05:18:37.065Z,98485.97
2022-07-25T05:21:04.365Z,98486.94
2022-07-25T05:23:31.510Z,98490.06
2022-07-25T05:25:58.798Z,98481.69
2022-07-25T05:28:26.289Z,98489.03
2022-07-25T05:30:53.559Z,98487.69
2022-07-25T05:33:20.931Z,98484.19
2022-07-25T05:35:48.371Z,98477.09
2022-07-25T05:38:15.648Z,98477.44
2022-07-25T05:40:42.916Z,98480.09
2022-07-25T05:43:10.116Z,98480.88
2022-07-25T05:45:37.762Z,98479.19
2022-07-25T05:48:05.172Z,98482.75
2022-07-25T05:50:32.430Z,98478.59
2022-07-25T05:52:59.712Z,98473.44
2022-07-25T05:55:26.907Z,98476.03
2022-07-25T05:57:54.182Z,98484.75
2022-07-25T06:00:21.420Z,98462.34
2022-07-25T06:02:48.701Z,98456.56
2022-07-25T06:05:16.037Z,98453.50
2022-07-25T06:07:43.338Z,98462.97
2022-07-25T06:10:10.622Z,98466.94
2022-07-25T06:12:37.804Z,98458.22
2022-07-25T06:15:06.850Z,98458.78
2022-07-25T06:17:39.984Z,98456.97
2022-07-25T06:20:08.289Z,98460.41
2022-07-25T06:22:35.711Z,98453.59
2022-07-25T06:25:03.770Z,98455.22
2022-07-25T06:27:30.978Z,98448.38
2022-07-25T06:29:58.350Z,98446.13
2022-07-25T06:32:25.543Z,98443.66
2022-07-25T06:34:52.756Z,98447.91
2022-07-25T06:37:19.997Z,98432.72
2022-07-25T06:39:47.262Z,98435.53
2022-07-25T06:42:14.484Z,98427.16
2022-07-25T06:44:44.100Z,98427.09
2022-07-25T06:47:12.936Z,98434.22
2022-07-25T06:49:44.670Z,98424.41
2022-07-25T06:52:11.841Z,98417.16
2022-07-25T06:54:39.396Z,98430.56
2022-07-25T06:57:06.650Z,98437.03
2022-07-25T06:59:33.901Z,98425.94
2022-07-25T07:02:01.148Z,98426.31
2022-07-25T07:04:28.516Z,98425.09
2022-07-25T07:06:55.697Z,98425.34
2022-07-25T07:09:22.961Z,98418.94
2022-07-25T07:11:50.100Z,98421.28
2022-07-25T07:14:17.284Z,98424.34
2022-07-25T07:16:44.561Z,98427.91
2022-07-25T07:19:12.017Z,98419.97
2022-07-25T07:21:39.274Z,98422.34
2022-07-25T07:24:22.104Z,98417.56
2022-07-25T07:26:54.164Z,98416.66
2022-07-25T07:29:21.863Z,98410.88
2022-07-25T07:31:49.653Z,98412.78
2022-07-25T07:34:17.166Z,98417.72
2022-07-25T07:36:44.445Z,98413.25
2022-07-25T07:39:12.009Z,98414.88
2022-07-25T07:41:39.970Z,98409.03
2022-07-25T07:44:07.957Z,98413.34
2022-07-25T07:46:35.170Z,98399.63
2022-07-25T07:49:02.486Z,98402.69
2022-07-25T07:51:29.780Z,98395.69
2022-07-25T07:54:15.762Z,98393.19
2022-07-25T07:56:43.019Z,98383.69
2022-07-25T07:59:10.542Z,98387.53
2022-07-25T08:01:38.078Z,98377.41
2022-07-25T08:04:05.918Z,98389.75
2022-07-25T08:06:33.304Z,98398.22
2022-07-25T08:09:00.566Z,98386.94
2022-07-25T08:11:27.737Z,98390.59
2022-07-25T08:13:55.650Z,98385.91
2022-07-25T08:16:22.925Z,98379.44
2022-07-25T08:18:50.267Z,98384.22
2022-07-25T08:21:17.546Z,98385.56
2022-07-25T08:23:47.121Z,98377.03
2022-07-25T08:26:14.481Z,98385.31
2022-07-25T08:28:42.780Z,98384.97
2022-07-25T08:31:10.330Z,98386.00
2022-07-25T08:33:37.777Z,98377.59
2022-07-25T08:36:05.926Z,98381.78
2022-07-25T08:38:38.481Z,98384.50
2022-07-25T08:41:06.312Z,98382.16
2022-07-25T08:43:37.754Z,98381.78
2022-07-25T08:46:06.957Z,98373.56
2022-07-25T08:48:35.997Z,98368.63
2022-07-25T08:51:04.098Z,98372.13
2022-07-25T08:53:33.548Z,98374.66
2022-07-25T08:56:11.136Z,98364.91
2022-07-25T08:58:41.894Z,98370.31
2022-07-25T09:01:13.269Z,98374.69
2022-07-25T09:03:43.252Z,98376.44
2022-07-25T09:06:23.124Z,98362.19
2022-07-25T09:09:00.308Z,98365.06
2022-07-25T09:11:35.255Z,98352.09
2022-07-25T09:14:10.696Z,98353.28
2022-07-25T09:16:43.193Z,98346.97
2022-07-25T09:19:18.791Z,98333.69
2022-07-25T09:22:10.066Z,98330.28
2022-07-25T09:24:45.597Z,98334.19
2022-07-25T09:27:13.156Z,98333.03
2022-07-25T09:29:45.476Z,98330.06
2022-07-25T09:32:23.110Z,98326.69
2022-07-25T09:34:51.059Z,98324.28
2022-07-25T09:37:27.257Z,98327.00
2022-07-25T09:39:54.670Z,98317.66
2022-07-25T09:42:32.408Z,98313.34
2022-07-25T09:45:13.002Z,98321.25
2022-07-25T09:47:58.535Z,98321.81
2022-07-25T09:50:31.303Z,98318.97
2022-07-25T09:53:02.540Z,98315.84
2022-07-25T09:55:31.462Z,98310.47
2022-07-25T09:57:59.055Z,98311.91
2022-07-25T10:00:29.477Z,98311.44
2022-07-25T10:03:40.841Z,98303.59
2022-07-25T10:07:12.205Z,98294.13
2022-07-25T10:09:54.066Z,98294.78
2022-07-25T10:12:23.934Z,98294.63
2022-07-25T10:15:13.237Z,98286.97
2022-07-25T10:17:42.056Z,98284.34
2022-07-25T10:20:10.982Z,98282.94
2022-07-25T10:22:56.412Z,98283.78
2022-07-25T10:25:25.614Z,98276.06
2022-07-25T10:28:01.089Z,98282.72
2022-07-25T10:30:40.829Z,98281.66
2022-07-25T10:33:21.359Z,98268.25
2022-07-25T10:35:48.518Z,98265.88
2022-07-25T10:38:27.896Z,98273.22
2022-07-25T10:41:02.092Z,98270.66
2022-07-25T10:43:29.448Z,98272.63
2022-07-25T10:46:00.185Z,98266.03
2022-07-25T10:48:32.143Z,98258.25
2022-07-25T10:51:07.028Z,98264.81
2022-07-25T10:53:45.901Z,98265.25
2022-07-25T10:56:20.885Z,98259.59
2022-07-25T10:59:01.512Z,98249.97
2022-07-25T11:01:33.981Z,98242.97
2022-07-25T11:04:16.057Z,98240.41
2022-07-25T11:06:43.890Z,98230.13
2022-07-25T11:09:29.223Z,98231.09
2022-07-25T11:11:59.466Z,98223.44
2022-07-25T11:14:34.519Z,98231.69
2022-07-25T11:17:20.321Z,98221.38
2022-07-25T11:20:17.537Z,98225.19
2022-07-25T11:22:54.347Z,98222.63
2022-07-25T11:25:23.466Z,98211.66
2022-07-25T11:27:59.046Z,98209.69
2022-07-25T11:30:29.599Z,98200.72
2022-07-25T11:33:01.547Z,98197.50
2022-07-25T11:35:33.796Z,98191.66
2022-07-25T11:38:03.292Z,98192.81
2022-07-25T11:40:32.600Z,98183.44
2022-07-25T11:43:01.079Z,98181.16
2022-07-25T11:45:34.528Z,98171.09
2022-07-25T11:48:12.574Z,98183.69
2022-07-25T11:50:45.195Z,98186.28
2022-07-25T11:53:17.158Z,98175.25
2022-07-25T11:55:44.723Z,98169.56
2022-07-25T11:58:14.295Z,98171.38
2022-07-25T12:00:50.076Z,98170.59
2022-07-25T12:03:21.146Z,98159.25
2022-07-25T12:05:50.239Z,98164.03
2022-07-25T12:08:21.155Z,98170.84
2022-07-25T12:10:55.170Z,98158.81
2022-07-25T12:13:26.366Z,98161.00
2022-07-25T12:15:57.058Z,98153.47
2022-07-25T12:18:26.761Z,98157.59
2022-07-25T12:20:54.632Z,98154.88
2022-07-25T12:23:22.234Z,98145.66
2022-07-25T12:25:50.399Z,98130.34
2022-07-25T12:28:50.848Z,98131.44
2022-07-25T12:31:18.526Z,98137.84
2022-07-25T12:33:45.880Z,98137.06
2022-07-25T12:36:14.076Z,98122.59
2022-07-25T12:38:41.455Z,98120.81
2022-07-25T12:41:08.664Z,98117.97
2022-07-25T12:43:39.252Z,98119.47
2022-07-25T12:46:06.805Z,98113.31
2022-07-25T12:48:34.343Z,98107.41
2022-07-25T12:51:01.742Z,98118.50
2022-07-25T12:53:29.041Z,98114.97
2022-07-25T12:55:56.409Z,98116.13
2022-07-25T12:58:23.774Z,98103.91
2022-07-25T13:00:51.515Z,98101.06
2022-07-25T13:03:18.806Z,98095.09
2022-07-25T13:05:46.153Z,98097.66
2022-07-25T13:08:13.400Z,98110.50
2022-07-25T13:10:40.738Z,98116.69
2022-07-25T13:13:07.917Z,98135.25
2022-07-25T13:15:36.968Z,98131.13
2022-07-25T13:18:04.530Z,98128.41
2022-07-25T13:20:35.419Z,98128.44
2022-07-25T13:23:03.370Z,98126.88
2022-07-25T13:25:31.262Z,98130.19
2022-07-25T13:27:58.534Z,98132.38
2022-07-25T13:30:25.907Z,98136.00
2022-07-25T13:32:54.098Z,98129.41
2022-07-25T13:35:24.691Z,98132.31
2022-07-25T13:37:56.637Z,98140.28
2022-07-25T13:40:23.874Z,98130.72
2022-07-25T13:42:51.047Z,98128.88
2022-07-25T13:45:18.792Z,98119.47
2022-07-25T13:47:47.001Z,98110.81
2022-07-25T13:50:15.512Z,98110.31
2022-07-25T13:52:42.731Z,98117.53
2022-07-25T13:55:11.339Z,98117.50
2022-07-25T13:57:38.814Z,98109.84
2022-07-25T14:00:07.614Z,98094.44
2022-07-25T14:02:34.955Z,98108.75
2022-07-25T14:05:04.387Z,98100.72
2022-07-25T14:07:31.768Z,98118.13
2022-07-25T14:09:59.038Z,98107.16
2022-07-25T14:12:26.410Z,98104.19
2022-07-25T14:14:53.667Z,98102.22
2022-07-25T14:17:23.814Z,98094.19
2022-07-25T14:19:54.550Z,98105.53
2022-07-25T14:22:24.838Z,98103.91
2022-07-25T14:24:53.489Z,98110.97
2022-07-25T14:27:20.700Z,98112.91
2022-07-25T14:29:47.885Z,98115.25
2022-07-25T14:32:15.292Z,98127.47
2022-07-25T14:34:42.719Z,98114.09
2022-07-25T14:37:10.023Z,98114.34
2022-07-25T14:39:37.651Z,98124.63
2022-07-25T14:42:05.108Z,98124.81
2022-07-25T14:44:32.533Z,98107.53
2022-07-25T14:47:06.801Z,98122.78
2022-07-25T14:49:36.773Z,98123.75
2022-07-25T14:52:04.492Z,98113.91
2022-07-25T14:54:31.883Z,98113.75
2022-07-25T14:56:59.177Z,98112.34
2022-07-25T14:59:26.800Z,98113.91
2022-07-25T15:01:54.953Z,98121.84
2022-07-25T15:04:25.056Z,98106.66
2022-07-25T15:06:53.312Z,98121.69
2022-07-25T15:09:21.306Z,98111.38
2022-07-25T15:11:49.291Z,98098.47
2022-07-25T15:14:16.582Z,98104.75
2022-07-25T15:16:44.175Z,98098.06
2022-07-25T15:19:16.440Z,98101.44
2022-07-25T15:21:45.478Z,98101.75
2022-07-25T15:24:14.065Z,98102.75
2022-07-25T15:26:41.430Z,98100.72
2022-07-25T15:29:11.165Z,98092.38
2022-07-25T15:31:38.761Z,98094.22
2022-07-25T15:34:06.324Z,98087.69
2022-07-25T15:36:33.612Z,98099.44
2022-07-25T15:39:00.927Z,98096.38
2022-07-25T15:41:28.202Z,98092.53
2022-07-25T15:43:55.471Z,98093.66
2022-07-25T15:46:22.788Z,98103.06
2022-07-25T15:48:50.227Z,98099.41
2022-07-25T15:51:17.762Z,98100.47
2022-07-25T15:53:45.733Z,98090.75
2022-07-25T15:56:21.010Z,98114.03
2022-07-25T15:58:49.578Z,98113.50
2022-07-25T16:01:17.068Z,98121.91
2022-07-25T16:03:45.170Z,98125.00
2022-07-25T16:06:16.977Z,98126.25
2022-07-25T16:08:48.661Z,98121.56
2022-07-25T16:11:24.537Z,98136.72
2022-07-25T16:13:52.421Z,98119.63
2022-07-25T16:16:22.058Z,98125.97
2022-07-25T16:18:49.619Z,98122.94
2022-07-25T16:21:17.100Z,98120.94
2022-07-25T16:23:45.689Z,98127.16
2022-07-25T16:26:13.774Z,98115.59
2022-07-25T16:28:42.522Z,98121.34
2022-07-25T16:31:10.233Z,98128.13
2022-07-25T16:33:38.256Z,98124.50
2022-07-25T16:36:06.913Z,98117.88
2022-07-25T16:38:34.823Z,98124.34
2022-07-25T16:41:02.056Z,98122.69
2022-07-25T16:43:29.392Z,98126.50
2022-07-25T16:45:56.663Z,98126.38
2022-07-25T16:48:25.037Z,98129.38
2022-07-25T16:50:52.564Z,98117.31
2022-07-25T16:53:20.526Z,98115.63
2022-07-25T16:55:47.855Z,98113.84
2022-07-25T16:58:15.611Z,98112.28
2022-07-25T17:00:43.620Z,98113.44
2022-07-25T17:03:10.869Z,98108.06
2022-07-25T17:05:38.344Z,98111.97
2022-07-25T17:08:05.566Z,98113.00
2022-07-25T17:10:32.775Z,98117.88
2022-07-25T17:13:00.076Z,98107.25
2022-07-25T17:15:27.308Z,98120.72
2022-07-25T17:17:54.771Z,98118.00
2022-07-25T17:20:22.178Z,98122.47
2022-07-25T17:22:49.462Z,98125.25
2022-07-25T17:25:16.733Z,98125.25
2022-07-25T17:27:44.240Z,98123.78
2022-07-25T17:30:12.432Z,98120.31
2022-07-25T17:32:39.931Z,98123.34
2022-07-25T17:35:07.879Z,98115.25
2022-07-25T17:37:35.480Z,98120.00
2022-07-25T17:40:04.073Z,98121.59
2022-07-25T17:42:31.472Z,98135.09
2022-07-25T17:44:58.795Z,98132.06
2022-07-25T17:47:26.474Z,98134.41
2022-07-25T17:52:50.906Z,98125.59
2022-07-25T17:55:38.937Z,98147.16
2022-07-25T17:58:26.952Z,98148.94
2022-07-25T18:01:22.512Z,98138.47
2022-07-25T18:03:56.334Z,98143.34
2022-07-25T18:06:29.277Z,98148.16
2022-07-25T18:08:57.953Z,98157.16
2022-07-25T18:11:28.397Z,98152.03
2022-07-25T18:13:56.013Z,98168.31
2022-07-25T18:16:30.624Z,98169.56
2022-07-25T18:19:31.741Z,98173.19
2022-07-25T18:22:03.172Z,98195.06
2022-07-25T18:24:38.410Z,98202.44
2022-07-25T18:27:21.681Z,98206.22
2022-07-25T18:29:49.769Z,98206.69
2022-07-25T18:32:17.192Z,98216.53
2022-07-25T18:34:44.521Z,98225.59
2022-07-25T18:37:11.792Z,98237.59
2022-07-25T18:39:40.607Z,98236.34
2022-07-25T18:42:08.306Z,98243.72
2022-07-25T18:44:35.524Z,98246.22
2022-07-25T18:47:03.331Z,98246.97
2022-07-25T18:49:30.709Z,98254.34
2022-07-25T18:51:58.238Z,98259.19
2022-07-25T18:54:25.796Z,98269.03
2022-07-25T18:56:53.261Z,98278.66
2022-07-25T18:59:28.514Z,98264.63
2022-07-25T19:02:08.259Z,98291.31
2022-07-25T19:04:35.994Z,98293.25
2022-07-25T19:07:03.589Z,98305.56
2022-07-25T19:09:30.832Z,98306.75
2022-07-25T19:11:58.087Z,98314.34
2022-07-25T19:14:27.344Z,98308.81
2022-07-25T19:16:55.732Z,98327.44
2022-07-25T19:19:23.917Z,98326.94
2022-07-25T19:21:51.411Z,98342.88
2022-07-25T19:24:19.256Z,98347.19
2022-07-25T19:26:51.463Z,98349.41
2022-07-25T19:29:20.933Z,98350.94
2022-07-25T19:31:48.224Z,98354.63
2022-07-25T19:34:15.634Z,98367.34
2022-07-25T19:36:45.828Z,98370.28
2022-07-25T19:39:14.035Z,98369.38
2022-07-25T19:41:46.600Z,98374.94
2022-07-25T19:44:15.106Z,98379.00
2022-07-25T19:46:43.086Z,98376.03
2022-07-25T19:49:10.815Z,98383.28
2022-07-25T19:51:38.291Z,98384.53
2022-07-25T19:54:08.267Z,98386.22
2022-07-25T19:56:36.579Z,98385.72
2022-07-25T19:59:04.651Z,98388.50
2022-07-25T20:01:35.920Z,98401.00
2022-07-25T20:04:05.968Z,98400.13
2022-07-25T20:06:33.352Z,98407.84
2022-07-25T20:09:06.743Z,98408.63
2022-07-25T20:11:40.157Z,98407.09
2022-07-25T20:14:09.562Z,98408.69
2022-07-25T20:16:38.837Z,98409.59
2022-07-25T20:19:11.303Z,98419.13
2022-07-25T20:21:40.217Z,98420.03
2022-07-25T20:24:08.296Z,98423.66
2022-07-25T20:26:35.780Z,98425.44
2022-07-25T20:29:04.981Z,98423.47
2022-07-25T20:31:32.833Z,98432.38
2022-07-25T20:34:00.323Z,98427.59
2022-07-25T20:36:28.028Z,98424.81
2022-07-25T20:38:55.414Z,98426.00
2022-07-25T20:41:24.421Z,98429.63
2022-07-25T20:43:52.237Z,98428.78
2022-07-25T20:46:19.569Z,98438.34
2022-07-25T20:48:53.646Z,98433.22
2022-07-25T20:51:23.859Z,98434.38
2022-07-25T20:53:51.646Z,98442.78
2022-07-25T20:56:22.349Z,98454.78
2022-07-25T20:58:50.615Z,98452.69
2022-07-25T21:01:18.320Z,98447.59
2022-07-25T21:03:45.862Z,98453.66
2022-07-25T21:06:13.552Z,98456.81
2022-07-25T21:08:41.011Z,98457.09
2022-07-25T21:11:08.771Z,98466.03
2022-07-25T21:13:37.306Z,98463.81
2022-07-25T21:16:05.403Z,98466.38
2022-07-25T21:18:33.264Z,98468.50
2022-07-25T21:21:00.934Z,98473.03
2022-07-25T21:23:28.960Z,98480.22
2022-07-25T21:25:56.755Z,98468.88
2022-07-25T21:28:24.443Z,98474.50
2022-07-25T21:30:53.834Z,98478.19
2022-07-25T21:33:21.897Z,98507.31
2022-07-25T21:35:53.434Z,98507.53
2022-07-25T21:38:26.436Z,98507.81
2022-07-25T21:40:57.379Z,98506.06
2022-07-25T21:43:28.125Z,98506.53
2022-07-25T21:45:55.978Z,98515.00
2022-07-25T21:48:43.889Z,98526.94
2022-07-25T21:51:19.296Z,98528.69
2022-07-25T21:53:53.349Z,98531.50
2022-07-25T21:57:38.465Z,98531.47
2022-07-25T22:01:21.538Z,98542.78
2022-07-25T22:03:49.801Z,98545.75
2022-07-25T22:06:42.778Z,98542.50
2022-07-25T22:09:11.572Z,98543.09
2022-07-25T22:11:46.131Z,98544.91
2022-07-25T22:15:32.900Z,98538.97
2022-07-25T22:19:20.756Z,98539.56
2022-07-25T22:23:07.636Z,98531.09
2022-07-25T22:26:56.885Z,98541.09
2022-07-25T22:30:41.550Z,98546.78
2022-07-25T22:34:24.177Z,98544.88
2022-07-25T22:38:13.888Z,98555.44
2022-07-25T22:41:57.009Z,98558.72
2022-07-25T22:45:42.910Z,98562.19
2022-07-25T22:49:26.193Z,98568.47
2022-07-25T22:51:53.797Z,98573.56
2022-07-25T22:54:21.129Z,98588.50
2022-07-25T22:56:49.417Z,98596.81
2022-07-25T22:59:17.640Z,98588.03
2022-07-25T23:01:45.409Z,98583.66
2022-07-25T23:04:13.247Z,98603.84
2022-07-25T23:06:40.740Z,98593.69
2022-07-25T23:09:09.354Z,98586.06
2022-07-25T23:11:37.365Z,98596.16
2022-07-25T23:14:04.688Z,98598.25
2022-07-25T23:16:32.191Z,98609.53
2022-07-25T23:18:59.563Z,98606.78
2022-07-25T23:21:26.937Z,98609.56
2022-07-25T23:23:55.307Z,98613.72
2022-07-25T23:26:22.629Z,98618.94
2022-07-25T23:28:50.242Z,98621.22
2022-07-25T23:31:17.768Z,98623.69
2022-07-25T23:33:45.115Z,98620.34
2022-07-25T23:36:12.644Z,98630.91
2022-07-25T23:38:39.991Z,98628.31
2022-07-25T23:41:07.225Z,98630.22
2022-07-25T23:43:57.039Z,98628.09
2022-07-25T23:46:27.674Z,98632.13
2022-07-25T23:48:58.671Z,98636.88
2022-07-25T23:51:26.775Z,98637.13
2022-07-25T23:53:54.495Z,98629.41
2022-07-25T23:56:22.709Z,98633.22
2022-07-25T23:58:51.302Z,98643.16
